Terminal Aerodrome Forecast
Issued by NWS

Current Version | Previous Version | Text Only | Print | Product List | Glossary Off
Versions: 1 2 3 4 5 6 7 8 9 10 11 12 13 14 15 16 17 18 19 20 21 22 23

000
FTUS41 KPBZ 111746
TAFMGW
TAF
KMGW 111746Z 1118/1218 22005KT P6SM SCT035 BKN100
     FM120300 18005KT P6SM OVC100
     FM121000 22010G22KT P6SM VCSH OVC035
     FM121200 23010G26KT 6SM -SN OVC025
     FM121500 25011G31KT 4SM -SHSN OVC015=

USA.gov is the U.S. government's official web portal to all federal, state and local government web resources and services.